EDDP/LEJ METAR and TAF weather

Enter ICAO airport designator
Station Type Date Time Source
EDDP METAR 2020/09/22 23:50 UTC NOAA

EDDP 222350Z 15006KT CAVOK 17/12 Q1007 NOSIG


Station Type Date Time Source
EDDP Decoded METAR 2020/09/22 23:50 UTC NOAA

Leipzig-Schkeuditz, Germany (EDDP) 51-25N 012-14E 149M
Sep 22, 2020 - 07:50 PM EDT / 2020.09.22 2350 UTC
Wind: from the SSE (150 degrees) at 7 MPH (6 KT):0
Visibility: greater than 7 mile(s):0
Temperature: 62 F (17 C)
Dew Point: 53 F (12 C)
Relative Humidity: 72%
Pressure (altimeter): 29.74 in. Hg (1007 hPa)
ob: EDDP 222350Z 15006KT CAVOK 17/12 Q1007 NOSIG
cycle: 0

Station Type Date Time Source
EDDP TAF 2020/09/22 18:27 UTC NOAA

TAF EDDP 221700Z 2218/2318 VRB03KT CAVOK PROB30
TEMPO 2218/2221 24015G25KT TSRA SCT050CB
BECMG 2307/2310 24010KT PROB30
TEMPO 2311/2317 24015G25KT -TSRA SCT050CB

Example: see airport list